Terminal Aerodrome Forecast
Issued by NWS

Home | Current Version | Previous Version | Text Only | Print | Product List | Glossary Off
Versions: 1 2 3 4 5 6 7 8 9 10 11 12 13

000
FTUS43 KABR 152300
TAFMBG
TAF
KMBG 152338Z 1600/1624 15016KT P6SM OVC080
     FM160200 14009KT P6SM BKN050
     FM161000 36006KT P6SM OVC025
     FM161600 36011G17KT P6SM BKN040=

USA.gov is the U.S. government's official web portal to all federal, state and local government web resources and services.